.
WxDataArchive / Data Records for 2005-12-21
2005-12-20 December 2005 2005-12-22

Data Records for Wednesday, 21 December 2005

Time	Temp	Chill	HIndex	Humid	Dewpt	 Wind 	HiWind	WindDir	Rain 	Barom 
-----	----	-----	------	-----	-----	------	------	-------	-----	----- 
00:00	22.1	22.1	22.1	77	16.0	2	4	270	0.00	30.255 
00:05	22.1	22.1	22.1	77	16.0	2	7	248	0.00	30.255 
00:10	21.9	21.9	21.9	77	15.8	2	3	270	0.00	30.255 
00:15	21.9	21.9	21.9	77	15.8	2	6	270	0.00	30.246 
00:20	21.9	21.9	21.9	77	15.8	2	7	270	0.00	30.246 
00:25	21.9	21.9	21.9	77	15.8	2	7	248	0.00	30.246 
00:30	21.9	16.4	21.9	76	15.5	4	11	248	0.00	30.240 
00:35	21.9	21.9	21.9	76	15.5	3	7	248	0.00	30.240 
00:40	21.8	21.8	21.8	75	15.1	3	13	248	0.00	30.240 
00:45	21.8	16.3	21.8	75	15.1	4	13	248	0.00	30.238 
00:50	21.8	21.8	21.8	75	15.1	2	5	248	0.00	30.238 
00:55	21.8	21.8	21.8	75	15.1	2	7	248	0.00	30.238 
01:00	21.8	21.8	21.8	76	15.4	3	7	248	0.00	30.238 
01:05	21.8	21.8	21.8	75	15.1	2	4	270	0.00	30.238 
01:10	21.8	21.8	21.8	76	15.4	2	5	248	0.00	30.238 
01:15	21.8	21.8	21.8	76	15.4	2	5	248	0.00	30.236 
01:20	21.8	21.8	21.8	76	15.4	1	3	248	0.00	30.236 
01:25	21.8	21.8	21.8	76	15.4	1	4	248	0.00	30.236 
01:30	21.8	21.8	21.8	76	15.4	2	7	248	0.00	30.223 
01:35	21.8	21.8	21.8	76	15.4	1	4	248	0.00	30.223 
01:40	21.8	21.8	21.8	76	15.4	2	4	248	0.00	30.223 
01:45	21.8	21.8	21.8	76	15.4	2	6	248	0.00	30.222 
01:50	21.8	21.8	21.8	76	15.4	2	5	248	0.00	30.222 
01:55	21.8	21.8	21.8	76	15.4	2	6	248	0.00	30.222 
02:00	21.8	21.8	21.8	76	15.4	2	5	248	0.00	30.217 
02:05	21.8	21.8	21.8	76	15.4	3	9	248	0.00	30.217 
02:10	21.9	21.9	21.9	77	15.8	1	3	248	0.00	30.217 
02:15	21.9	21.9	21.9	77	15.8	2	6	248	0.00	30.212 
02:20	21.9	21.9	21.9	76	15.5	2	6	248	0.00	30.212 
02:25	22.1	22.1	22.1	76	15.7	3	7	248	0.00	30.212 
02:30	22.1	15.4	22.1	75	15.4	5	13	248	0.00	30.208 
02:35	22.2	22.2	22.2	75	15.5	3	10	248	0.00	30.208 
02:40	22.2	22.2	22.2	75	15.5	3	7	248	0.00	30.208 
02:45	22.2	22.2	22.2	75	15.5	3	9	270	0.00	30.205 
02:50	22.2	22.2	22.2	75	15.5	3	7	270	0.00	30.205 
02:55	22.2	22.2	22.2	75	15.5	3	7	270	0.00	30.205 
03:00	22.2	22.2	22.2	76	15.8	1	4	248	0.00	30.206 
03:05	22.2	22.2	22.2	76	15.8	2	4	248	0.00	30.206 
03:10	22.2	22.2	22.2	76	15.8	2	6	248	0.00	30.206 
03:15	22.2	22.2	22.2	76	15.8	2	7	248	0.00	30.204 
03:20	22.2	22.2	22.2	76	15.8	1	4	248	0.00	30.204 
03:25	22.4	22.4	22.4	76	16.0	1	4	248	0.00	30.204 
03:30	22.4	22.4	22.4	76	16.0	1	5	248	0.00	30.203 
03:35	22.4	22.4	22.4	76	16.0	1	2	248	0.00	30.203 
03:40	22.4	22.4	22.4	76	16.0	1	3	248	0.00	30.203 
03:45	22.4	22.4	22.4	76	16.0	1	3	248	0.00	30.190 
03:50	22.4	22.4	22.4	76	16.0	1	4	248	0.00	30.190 
03:55	22.5	22.5	22.5	76	16.1	1	4	248	0.00	30.190 
04:00	22.5	22.5	22.5	76	16.1	1	3	248	0.00	30.188 
04:05	22.5	22.5	22.5	76	16.1	2	4	248	0.00	30.188 
04:10	22.5	22.5	22.5	76	16.1	1	6	248	0.00	30.188 
04:15	22.7	22.7	22.7	76	16.3	1	3	248	0.00	30.182 
04:20	22.7	22.7	22.7	76	16.3	1	4	248	0.00	30.182 
04:25	22.7	22.7	22.7	76	16.3	2	6	248	0.00	30.182 
04:30	22.7	22.7	22.7	76	16.3	1	5	248	0.00	30.180 
04:35	22.7	22.7	22.7	77	16.6	2	5	248	0.00	30.180 
04:40	22.9	22.9	22.9	77	16.8	2	4	248	0.00	30.180 
04:45	22.9	22.9	22.9	77	16.8	2	4	248	0.00	30.174 
04:50	23.0	23.0	23.0	77	16.9	2	4	248	0.00	30.174 
04:55	23.2	23.2	23.2	77	17.1	3	7	248	0.00	30.174 
05:00	23.2	23.2	23.2	77	17.1	2	6	248	0.00	30.175 
05:05	23.3	23.3	23.3	77	17.2	2	5	248	0.00	30.175 
05:10	23.3	23.3	23.3	77	17.2	2	6	248	0.00	30.175 
05:15	23.3	23.3	23.3	77	17.2	3	6	248	0.00	30.175 
05:20	23.5	23.5	23.5	77	17.4	3	7	248	0.00	30.175 
05:25	23.5	23.5	23.5	77	17.4	3	5	248	0.00	30.175 
05:30	23.5	23.5	23.5	77	17.4	3	9	248	0.00	30.169 
05:35	23.5	23.5	23.5	77	17.4	3	6	248	0.00	30.169 
05:40	23.3	23.3	23.3	77	17.2	3	6	248	0.00	30.169 
05:45	23.2	23.2	23.2	77	17.1	3	7	248	0.00	30.172 
05:50	23.2	23.2	23.2	77	17.1	3	7	248	0.00	30.172 
05:55	23.2	23.2	23.2	77	17.1	3	6	248	0.00	30.172 
06:00	23.2	23.2	23.2	77	17.1	3	7	248	0.00	30.168 
06:05	23.2	23.2	23.2	77	17.1	3	11	248	0.00	30.168 
06:10	23.2	23.2	23.2	77	17.1	3	10	248	0.00	30.168 
06:15	23.3	23.3	23.3	77	17.2	3	10	225	0.00	30.174 
06:20	23.3	23.3	23.3	77	17.2	3	6	248	0.00	30.174 
06:25	23.3	23.3	23.3	77	17.2	2	6	248	0.00	30.174 
06:30	23.2	23.2	23.2	77	17.1	3	7	248	0.00	30.175 
06:35	23.3	23.3	23.3	78	17.5	3	7	248	0.00	30.175 
06:40	23.5	18.3	23.5	77	17.4	4	11	248	0.00	30.175 
06:45	23.5	23.5	23.5	77	17.4	3	7	248	0.00	30.165 
06:50	23.3	18.0	23.3	77	17.2	4	7	248	0.00	30.165 
06:55	23.3	18.0	23.3	77	17.2	4	8	248	0.00	30.165 
07:00	23.2	17.9	23.2	77	17.1	4	11	248	0.00	30.164 
07:05	23.2	23.2	23.2	77	17.1	3	10	248	0.00	30.164 
07:10	23.2	23.2	23.2	77	17.1	3	9	248	0.00	30.164 
07:15	23.0	23.0	23.0	77	16.9	3	13	248	0.00	30.167 
07:20	23.0	23.0	23.0	78	17.2	3	6	248	0.00	30.167 
07:25	23.0	23.0	23.0	78	17.2	3	7	248	0.00	30.167 
07:30	23.0	23.0	23.0	78	17.2	3	10	248	0.00	30.171 
07:35	23.0	23.0	23.0	78	17.2	2	9	248	0.00	30.171 
07:40	23.0	23.0	23.0	78	17.2	3	6	248	0.00	30.171 
07:45	23.0	23.0	23.0	78	17.2	3	6	248	0.00	30.163 
07:50	23.0	23.0	23.0	78	17.2	3	7	248	0.00	30.163 
07:55	23.0	23.0	23.0	78	17.2	2	4	248	0.00	30.163 
08:00	23.0	23.0	23.0	78	17.2	3	9	248	0.00	30.173 
08:05	23.0	23.0	23.0	78	17.2	3	6	248	0.00	30.173 
08:10	23.2	23.2	23.2	78	17.4	3	9	248	0.00	30.173 
08:15	23.0	23.0	23.0	78	17.2	3	7	248	0.00	30.169 
08:20	23.0	23.0	23.0	78	17.2	3	6	248	0.00	30.169 
08:25	23.0	23.0	23.0	78	17.2	3	9	248	0.00	30.169 
08:30	22.9	22.9	22.9	78	17.1	3	9	248	0.00	30.157 
08:35	22.9	17.6	22.9	78	17.1	4	9	248	0.00	30.157 
08:40	22.9	22.9	22.9	78	17.1	3	7	248	0.00	30.157 
08:45	22.7	22.7	22.7	78	16.9	3	6	248	0.00	30.166 
08:50	22.5	22.5	22.5	78	16.7	3	6	248	0.00	30.166 
08:55	22.5	17.1	22.5	78	16.7	4	10	248	0.00	30.166 
09:00	22.5	22.5	22.5	78	16.7	3	7	248	0.00	30.163 
09:05	22.5	22.5	22.5	78	16.7	3	8	248	0.00	30.163 
09:10	22.5	22.5	22.5	78	16.7	3	9	248	0.00	30.163 
09:15	22.7	22.7	22.7	78	16.9	3	7	248	0.00	30.167 
09:20	22.7	17.3	22.7	78	16.9	4	10	248	0.00	30.167 
09:25	22.7	22.7	22.7	77	16.6	2	4	248	0.00	30.167 
09:30	22.9	22.9	22.9	77	16.8	3	6	248	0.00	30.171 
09:35	23.0	23.0	23.0	77	16.9	3	10	248	0.00	30.171 
09:40	23.2	17.9	23.2	77	17.1	4	8	248	0.00	30.171 
09:45	23.2	16.7	23.2	76	16.8	5	13	248	0.00	30.175 
09:50	23.2	23.2	23.2	76	16.8	3	10	248	0.00	30.175 
09:55	23.3	18.0	23.3	76	16.9	4	11	248	0.00	30.175 
10:00	23.3	18.0	23.3	76	16.9	4	11	248	0.00	30.175 
10:05	23.3	23.3	23.3	75	16.6	3	9	248	0.00	30.175 
10:10	23.5	18.3	23.5	76	17.1	4	10	270	0.00	30.175 
10:15	23.8	18.6	23.8	75	17.1	4	15	270	0.00	30.172 
10:20	24.1	19.0	24.1	75	17.3	4	15	270	0.00	30.172 
10:25	24.2	19.1	24.2	74	17.1	4	13	270	0.00	30.172 
10:30	24.2	17.9	24.2	75	17.4	5	15	270	0.00	30.178 
10:35	24.4	19.3	24.4	75	17.6	4	11	270	0.00	30.178 
10:40	24.5	18.3	24.5	74	17.4	5	11	270	0.00	30.178 
10:45	24.5	18.3	24.5	74	17.4	5	12	270	0.00	30.174 
10:50	24.7	19.6	24.7	74	17.6	4	13	270	0.00	30.174 
10:55	24.7	17.5	24.7	73	17.3	6	13	270	0.00	30.174 
11:00	24.7	19.6	24.7	73	17.3	4	11	270	0.00	30.176 
11:05	24.7	16.7	24.7	72	17.0	7	15	270	0.00	30.176 
11:10	24.5	18.3	24.5	71	16.5	5	13	270	0.00	30.176 
11:15	24.5	18.3	24.5	70	16.1	5	16	270	0.00	30.173 
11:20	24.4	18.1	24.4	70	16.0	5	12	270	0.00	30.173 
11:25	24.2	17.9	24.2	69	15.5	5	13	270	0.00	30.173 
11:30	24.4	19.3	24.4	69	15.7	4	13	248	0.00	30.173 
11:35	24.4	19.3	24.4	69	15.7	4	10	270	0.00	30.173 
11:40	24.5	19.4	24.5	69	15.8	4	12	270	0.00	30.173 
11:45	24.7	24.7	24.7	69	16.0	3	12	270	0.00	30.171 
11:50	24.7	19.6	24.7	68	15.7	4	11	270	0.00	30.171 
11:55	24.7	19.6	24.7	68	15.7	4	10	270	0.00	30.171 
12:00	24.7	19.6	24.7	68	15.7	4	11	270	0.00	30.171 
12:05	24.7	18.5	24.7	68	15.7	5	13	270	0.00	30.171 
12:10	24.8	19.8	24.8	69	16.1	4	9	270	0.00	30.171 
12:15	24.8	19.8	24.8	68	15.8	4	13	270	0.00	30.167 
12:20	24.7	17.5	24.7	67	15.3	6	14	270	0.00	30.167 
12:25	24.7	19.6	24.7	69	16.0	4	11	270	0.00	30.167 
12:30	24.7	17.5	24.7	68	15.7	6	15	270	0.00	30.161 
12:35	25.0	20.0	25.0	67	15.6	4	9	270	0.00	30.161 
12:40	25.3	20.3	25.3	67	15.9	4	12	248	0.00	30.161 
12:45	25.3	19.2	25.3	67	15.9	5	11	270	0.00	30.154 
12:50	25.3	18.3	25.3	65	15.2	6	16	270	0.00	30.154 
12:55	25.4	19.3	25.4	66	15.7	5	14	270	0.00	30.154 
13:00	25.8	19.8	25.8	65	15.7	5	11	270	0.00	30.152 
13:05	26.3	20.4	26.3	64	15.8	5	12	270	0.00	30.152 
13:10	26.7	22.0	26.7	63	15.8	4	7	270	0.00	30.152 
13:15	26.7	22.0	26.7	63	15.8	4	13	270	0.00	30.154 
13:20	26.9	21.1	26.9	62	15.6	5	12	270	0.00	30.154 
13:25	26.6	19.8	26.6	62	15.4	6	14	270	0.00	30.154 
13:30	26.9	21.1	26.9	61	15.3	5	10	270	0.00	30.155 
13:35	27.0	22.3	27.0	61	15.4	4	7	270	0.00	30.155 
13:40	26.9	21.1	26.9	61	15.3	5	12	270	0.00	30.155 
13:45	27.0	22.3	27.0	61	15.4	4	11	270	0.00	30.156 
13:50	27.0	22.3	27.0	60	15.0	4	9	270	0.00	30.156 
13:55	26.9	22.2	26.9	60	14.9	4	8	270	0.00	30.156 
14:00	26.9	22.2	26.9	59	14.5	4	9	270	0.00	30.157 
14:05	26.7	20.9	26.7	58	13.9	5	14	270	0.00	30.157 
14:10	26.7	20.9	26.7	58	13.9	5	13	248	0.00	30.157 
14:15	26.9	26.9	26.9	61	15.3	3	6	270	0.00	30.160 
14:20	27.3	27.3	27.3	61	15.7	3	9	270	0.00	30.160 
14:25	27.6	27.6	27.6	61	15.9	2	4	270	0.00	30.160 
14:30	27.6	27.6	27.6	60	15.6	3	7	270	0.00	30.166 
14:35	27.6	27.6	27.6	59	15.2	2	4	270	0.00	30.166 
14:40	27.5	27.5	27.5	59	15.1	3	6	270	0.00	30.166 
14:45	27.2	27.2	27.2	60	15.2	2	9	270	0.00	30.167 
14:50	27.0	27.0	27.0	59	14.6	3	7	270	0.00	30.167 
14:55	26.6	21.8	26.6	58	13.8	4	10	248	0.00	30.167 
15:00	26.4	21.6	26.4	60	14.4	4	7	270	0.00	30.170 
15:05	26.6	26.6	26.6	60	14.6	3	9	270	0.00	30.170 
15:10	26.7	22.0	26.7	61	15.1	4	11	270	0.00	30.170 
15:15	26.9	26.9	26.9	59	14.5	3	7	270	0.00	30.169 
15:20	26.9	22.2	26.9	59	14.5	4	9	270	0.00	30.169 
15:25	26.9	26.9	26.9	58	14.1	3	9	270	0.00	30.169 
15:30	26.9	22.2	26.9	57	13.7	4	10	270	0.00	30.176 
15:35	27.0	22.3	27.0	57	13.8	4	10	270	0.00	30.176 
15:40	27.0	22.3	27.0	57	13.8	4	9	248	0.00	30.176 
15:45	26.7	22.0	26.7	58	13.9	4	7	270	0.00	30.186 
15:50	26.6	26.6	26.6	58	13.8	3	6	270	0.00	30.186 
15:55	26.6	26.6	26.6	58	13.8	3	7	270	0.00	30.186 
16:00	26.4	26.4	26.4	59	14.0	3	5	270	0.00	30.198 
16:05	26.4	26.4	26.4	59	14.0	2	6	248	0.00	30.198 
16:10	26.1	26.1	26.1	59	13.8	3	10	248	0.00	30.198 
16:15	26.0	26.0	26.0	59	13.7	3	10	270	0.00	30.203 
16:20	25.8	25.8	25.8	60	13.9	2	6	270	0.00	30.203 
16:25	25.7	25.7	25.7	61	14.1	2	5	248	0.00	30.203 
16:30	25.7	25.7	25.7	61	14.1	2	5	270	0.00	30.211 
16:35	25.6	25.6	25.6	61	14.0	3	10	270	0.00	30.211 
16:40	25.6	25.6	25.6	61	14.0	2	7	248	0.00	30.211 
16:45	25.4	25.4	25.4	61	13.9	2	5	248	0.00	30.220 
16:50	25.4	25.4	25.4	62	14.2	2	7	248	0.00	30.220 
16:55	25.1	25.1	25.1	62	13.9	2	4	248	0.00	30.220 
17:00	24.8	24.8	24.8	63	14.0	2	7	248	0.00	30.225 
17:05	24.5	24.5	24.5	64	14.1	2	6	248	0.00	30.225 
17:10	24.4	24.4	24.4	64	14.0	2	7	270	0.00	30.225 
17:15	24.1	24.1	24.1	64	13.7	2	6	248	0.00	30.233 
17:20	24.1	24.1	24.1	64	13.7	2	6	248	0.00	30.233 
17:25	23.8	23.8	23.8	65	13.8	1	5	270	0.00	30.233 
17:30	23.5	23.5	23.5	65	13.5	1	3	248	0.00	30.236 
17:35	23.3	23.3	23.3	66	13.6	1	2	248	0.00	30.236 
17:40	23.2	23.2	23.2	66	13.6	1	2	248	0.00	30.236 
17:45	23.0	23.0	23.0	66	13.4	1	2	248	0.00	30.244 
17:50	22.9	22.9	22.9	67	13.6	1	3	248	0.00	30.244 
17:55	22.7	22.7	22.7	68	13.8	0	1	248	0.00	30.244 
18:00	22.5	22.5	22.5	68	13.6	1	3	270	0.00	30.248 
18:05	22.5	22.5	22.5	68	13.6	1	3	248	0.00	30.248 
18:10	22.4	22.4	22.4	68	13.5	0	2	248	0.00	30.248 
18:15	22.2	22.2	22.2	68	13.3	0	1	248	0.00	30.248 
18:20	22.1	22.1	22.1	69	13.5	0	2	248	0.00	30.248 
18:25	21.9	21.9	21.9	69	13.3	0	1	248	0.00	30.248 
18:30	21.8	21.8	21.8	69	13.2	0	2	248	0.00	30.252 
18:35	21.4	21.4	21.4	70	13.2	0	1	248	0.00	30.252 
18:40	21.4	21.4	21.4	70	13.2	0	2	248	0.00	30.252 
18:45	21.3	21.3	21.3	70	13.1	0	1	248	0.00	30.257 
18:50	21.1	21.1	21.1	70	12.9	0	0	---	0.00	30.257 
18:55	21.1	21.1	21.1	70	12.9	0	1	248	0.00	30.257 
19:00	21.0	21.0	21.0	70	12.8	1	2	248	0.00	30.258 
19:05	21.0	21.0	21.0	70	12.8	0	2	248	0.00	30.258 
19:10	21.0	21.0	21.0	70	12.8	1	3	248	0.00	30.258 
19:15	21.0	21.0	21.0	70	12.8	1	2	248	0.00	30.259 
19:20	21.0	21.0	21.0	70	12.8	1	2	248	0.00	30.259 
19:25	21.0	21.0	21.0	71	13.1	1	2	248	0.00	30.259 
19:30	21.0	21.0	21.0	71	13.1	0	2	248	0.00	30.257 
19:35	20.8	20.8	20.8	71	12.9	0	1	248	0.00	30.257 
19:40	20.6	20.6	20.6	71	12.7	0	2	248	0.00	30.257 
19:45	20.5	20.5	20.5	72	12.9	0	2	248	0.00	30.257 
19:50	20.3	20.3	20.3	72	12.7	1	4	248	0.00	30.257 
19:55	20.5	20.5	20.5	72	12.9	1	3	248	0.00	30.257 
20:00	20.6	20.6	20.6	72	13.0	1	3	248	0.00	30.253 
20:05	20.6	20.6	20.6	72	13.0	1	3	248	0.00	30.253 
20:10	20.5	20.5	20.5	73	13.2	1	4	248	0.00	30.253 
20:15	20.5	20.5	20.5	73	13.2	1	3	225	0.00	30.254 
20:20	20.3	20.3	20.3	73	13.1	1	2	248	0.00	30.254 
20:25	20.2	20.2	20.2	73	13.0	1	3	248	0.00	30.254 
20:30	20.2	20.2	20.2	74	13.3	1	4	248	0.00	30.255 
20:35	20.2	20.2	20.2	74	13.3	1	2	248	0.00	30.255 
20:40	20.2	20.2	20.2	76	13.9	2	5	248	0.00	30.255 
20:45	20.3	20.3	20.3	77	14.3	2	6	248	0.00	30.254 
20:50	20.3	20.3	20.3	77	14.3	1	3	248	0.00	30.254 
20:55	20.2	20.2	20.2	78	14.5	2	5	248	0.00	30.254 
21:00	20.2	20.2	20.2	79	14.8	2	5	248	0.00	30.250 
21:05	19.9	19.9	19.9	79	14.5	1	5	248	0.00	30.250 
21:10	19.9	19.9	19.9	80	14.7	2	4	248	0.00	30.250 
21:15	19.7	19.7	19.7	81	14.8	1	3	248	0.00	30.251 
21:20	19.5	19.5	19.5	81	14.6	1	3	248	0.00	30.251 
21:25	19.5	19.5	19.5	82	14.9	1	5	248	0.00	30.251 
21:30	19.5	19.5	19.5	82	14.9	1	4	248	0.00	30.252 
21:35	19.5	19.5	19.5	83	15.2	2	4	248	0.00	30.252 
21:40	19.5	19.5	19.5	83	15.2	1	4	248	0.00	30.252 
21:45	19.4	19.4	19.4	83	15.1	1	4	248	0.00	30.249 
21:50	19.4	19.4	19.4	84	15.4	2	4	248	0.00	30.249 
21:55	19.4	19.4	19.4	84	15.4	2	4	248	0.00	30.249 
22:00	19.2	19.2	19.2	84	15.2	2	5	248	0.00	30.255 
22:05	19.2	19.2	19.2	84	15.2	2	5	248	0.00	30.255 
22:10	19.2	19.2	19.2	84	15.2	1	4	270	0.00	30.255 
22:15	19.4	19.4	19.4	84	15.4	2	5	248	0.00	30.254 
22:20	19.4	19.4	19.4	84	15.4	1	5	248	0.00	30.254 
22:25	19.2	19.2	19.2	84	15.2	1	4	248	0.00	30.254 
22:30	19.1	19.1	19.1	84	15.1	1	2	248	0.00	30.251 
22:35	18.9	18.9	18.9	84	14.9	1	5	270	0.00	30.251 
22:40	18.8	18.8	18.8	84	14.8	1	2	248	0.00	30.251 
22:45	18.6	18.6	18.6	85	14.9	1	2	248	0.00	30.253 
22:50	18.6	18.6	18.6	85	14.9	1	3	248	0.00	30.253 
22:55	18.6	18.6	18.6	85	14.9	0	2	248	0.00	30.253 
23:00	18.4	18.4	18.4	85	14.7	1	2	248	0.00	30.255 
23:05	18.4	18.4	18.4	85	14.7	1	3	248	0.00	30.255 
23:10	18.3	18.3	18.3	86	14.8	2	6	248	0.00	30.255 
23:15	18.3	18.3	18.3	86	14.8	1	4	248	0.00	30.253 
23:20	18.4	18.4	18.4	87	15.2	2	6	270	0.00	30.253 
23:25	18.3	18.3	18.3	87	15.1	1	4	248	0.00	30.253 
23:30	18.1	18.1	18.1	87	14.9	0	2	248	0.00	30.241 
23:35	18.0	18.0	18.0	87	14.8	0	3	248	0.00	30.241 
23:40	17.8	17.8	17.8	87	14.6	0	2	248	0.00	30.241 
23:45	17.8	17.8	17.8	87	14.6	1	5	248	0.00	30.243 
23:50	17.8	17.8	17.8	87	14.6	1	3	248	0.00	30.243 
23:55	17.8	17.8	17.8	88	14.9	1	3	248	0.00	30.243 

CoCoRaHS
IN-AL-39
A2 Web Hosting
Creative Commons License
GoDaddy
Look for:

loaded 2017-10-18 22:02:59 • last modified 2010-11-18 10:43:29
Privacy PolicyDisclaimer
• wx.awcolley.com is powered by PmWiki v.2002016 •
• all content (unless otherwise noted) © 2017 A W Colley